createdAt,value
2018-04-12T00:00:37.053Z,0
2018-04-12T00:01:17.629Z,0
2018-04-12T00:01:58.195Z,0
2018-04-12T00:02:38.760Z,0
2018-04-12T00:03:19.316Z,0
2018-04-12T00:03:59.940Z,0
2018-04-12T00:04:40.523Z,0
2018-04-12T00:05:21.092Z,0
2018-04-12T00:06:01.655Z,0
2018-04-12T00:06:42.218Z,0
2018-04-12T00:07:22.783Z,0
2018-04-12T00:08:03.352Z,0
2018-04-12T00:08:43.911Z,0
2018-04-12T00:09:24.536Z,0
2018-04-12T00:10:05.101Z,0
2018-04-12T00:10:45.665Z,0
2018-04-12T00:11:26.224Z,0
2018-04-12T00:12:06.783Z,0
2018-04-12T00:12:47.370Z,0
2018-04-12T00:13:27.967Z,0
2018-04-12T00:14:08.550Z,0
2018-04-12T00:14:49.127Z,0
2018-04-12T00:15:29.691Z,0
2018-04-12T00:16:10.228Z,0
2018-04-12T00:16:50.799Z,0
2018-04-12T00:17:31.350Z,0
2018-04-12T00:18:11.909Z,0
2018-04-12T00:18:52.462Z,0
2018-04-12T00:19:33.030Z,0
2018-04-12T00:20:13.590Z,0
2018-04-12T00:20:54.146Z,0
2018-04-12T00:21:34.719Z,0
2018-04-12T00:22:15.321Z,0
2018-04-12T00:22:55.887Z,0
2018-04-12T00:23:36.468Z,0
2018-04-12T00:24:17.072Z,0
2018-04-12T00:24:57.640Z,0
2018-04-12T00:25:38.233Z,0
2018-04-12T00:26:18.764Z,0
2018-04-12T00:26:59.321Z,0
2018-04-12T00:27:39.891Z,0
2018-04-12T00:28:20.489Z,0
2018-04-12T00:29:01.055Z,0
2018-04-12T00:29:41.657Z,0
2018-04-12T00:30:22.215Z,0
2018-04-12T00:31:02.768Z,0
2018-04-12T00:31:43.334Z,0
2018-04-12T00:32:23.896Z,0
2018-04-12T00:33:04.468Z,0
2018-04-12T00:33:45.082Z,0
2018-04-12T00:34:25.645Z,0
2018-04-12T00:35:06.249Z,0
2018-04-12T00:35:46.805Z,0
2018-04-12T00:36:27.370Z,0
2018-04-12T00:37:07.927Z,0
2018-04-12T00:37:48.492Z,0
2018-04-12T00:38:29.053Z,0
2018-04-12T00:39:09.615Z,0
2018-04-12T00:39:50.172Z,0
2018-04-12T00:40:30.738Z,0
2018-04-12T00:41:11.304Z,0
2018-04-12T00:41:51.877Z,0
2018-04-12T00:42:32.460Z,0
2018-04-12T00:43:13.016Z,0
2018-04-12T00:43:53.607Z,0
2018-04-12T00:44:34.173Z,0
2018-04-12T00:45:14.747Z,0
2018-04-12T00:45:55.308Z,0
2018-04-12T00:46:35.904Z,0
2018-04-12T00:47:16.466Z,0
2018-04-12T00:47:57.034Z,0
2018-04-12T00:48:37.611Z,0
2018-04-12T00:49:18.173Z,0
2018-04-12T00:49:58.765Z,0
2018-04-12T00:50:39.350Z,0
2018-04-12T00:51:19.901Z,0
2018-04-12T00:52:00.497Z,0
2018-04-12T00:52:41.060Z,0
2018-04-12T00:53:21.612Z,0
2018-04-12T00:54:02.190Z,0
2018-04-12T00:54:42.761Z,0
2018-04-12T00:55:23.347Z,0
2018-04-12T00:56:03.911Z,0
2018-04-12T00:56:44.531Z,0
2018-04-12T00:57:25.111Z,0
2018-04-12T00:58:05.685Z,0
2018-04-12T00:58:46.239Z,0
2018-04-12T00:59:26.797Z,0
2018-04-12T01:00:07.370Z,0
2018-04-12T01:00:47.923Z,0
2018-04-12T01:01:28.491Z,0
2018-04-12T01:02:09.040Z,0
2018-04-12T01:02:49.605Z,0
2018-04-12T01:03:30.176Z,0
2018-04-12T01:04:10.760Z,0
2018-04-12T01:04:51.287Z,0
2018-04-12T01:05:31.899Z,0
2018-04-12T01:06:12.472Z,0
2018-04-12T01:06:53.027Z,0
2018-04-12T01:07:33.586Z,0
2018-04-12T01:08:14.145Z,0
2018-04-12T01:08:54.700Z,0
2018-04-12T01:09:35.283Z,0
2018-04-12T01:10:15.875Z,0
2018-04-12T01:10:56.439Z,0
2018-04-12T01:11:37.068Z,0
2018-04-12T01:12:17.644Z,0
2018-04-12T01:12:58.269Z,0
2018-04-12T01:13:38.840Z,0
2018-04-12T01:14:19.409Z,0
2018-04-12T01:14:59.991Z,0
2018-04-12T01:15:40.617Z,0
2018-04-12T01:16:21.136Z,0
2018-04-12T01:17:01.710Z,0
2018-04-12T01:17:42.312Z,0
2018-04-12T01:18:22.876Z,0
2018-04-12T01:19:03.464Z,0
2018-04-12T01:19:44.052Z,0
2018-04-12T01:20:24.620Z,0
2018-04-12T01:21:05.197Z,0
2018-04-12T01:21:45.773Z,0
2018-04-12T01:22:26.335Z,0
2018-04-12T01:23:06.896Z,0
2018-04-12T01:23:47.454Z,0
2018-04-12T01:24:28.025Z,0
2018-04-12T01:25:08.601Z,0
2018-04-12T01:25:49.189Z,0
2018-04-12T01:26:29.756Z,0
2018-04-12T01:27:10.318Z,0
2018-04-12T01:27:50.880Z,0
2018-04-12T01:28:31.444Z,0
2018-04-12T01:29:12.021Z,0
2018-04-12T01:29:52.585Z,0
2018-04-12T01:30:33.144Z,0
2018-04-12T01:31:13.716Z,0
2018-04-12T01:31:54.269Z,0
2018-04-12T01:32:34.835Z,0
2018-04-12T01:33:15.431Z,0
2018-04-12T01:33:56.021Z,0
2018-04-12T01:34:36.595Z,0
2018-04-12T01:35:17.142Z,0
2018-04-12T01:35:57.709Z,0
2018-04-12T01:36:38.271Z,0
2018-04-12T01:37:18.828Z,0
2018-04-12T01:37:59.380Z,0
2018-04-12T01:38:39.952Z,0
2018-04-12T01:39:20.564Z,0
2018-04-12T01:40:01.117Z,0
2018-04-12T01:40:41.664Z,0
2018-04-12T01:41:22.222Z,0
2018-04-12T01:42:02.803Z,0
2018-04-12T01:42:43.359Z,0
2018-04-12T01:43:23.920Z,0
2018-04-12T01:44:04.484Z,0
2018-04-12T01:44:45.040Z,0
2018-04-12T01:45:25.616Z,0
2018-04-12T01:46:06.211Z,0
2018-04-12T01:46:46.767Z,0
2018-04-12T01:47:27.320Z,0
2018-04-12T01:48:07.897Z,0
2018-04-12T01:48:48.504Z,0
2018-04-12T01:49:29.079Z,0
2018-04-12T01:50:09.660Z,0
2018-04-12T01:50:50.221Z,0
2018-04-12T01:51:30.843Z,0
2018-04-12T01:52:11.369Z,0
2018-04-12T01:52:51.951Z,0
2018-04-12T01:53:32.508Z,0
2018-04-12T01:54:13.075Z,0
2018-04-12T01:54:53.636Z,0
2018-04-12T01:55:34.182Z,0
2018-04-12T01:56:14.783Z,0
2018-04-12T01:56:55.341Z,0
2018-04-12T01:57:35.936Z,0
2018-04-12T01:58:16.495Z,0
2018-04-12T01:58:57.092Z,0
2018-04-12T01:59:37.654Z,0
2018-04-12T02:00:18.223Z,0
2018-04-12T02:00:58.792Z,0
2018-04-12T02:01:39.385Z,0
2018-04-12T02:02:19.968Z,0
2018-04-12T02:03:00.542Z,0
2018-04-12T02:03:41.100Z,0
2018-04-12T02:04:21.658Z,0
2018-04-12T02:05:02.229Z,0
2018-04-12T02:05:42.790Z,0
2018-04-12T02:06:23.378Z,0
2018-04-12T02:07:03.934Z,0
2018-04-12T02:07:44.489Z,0
2018-04-12T02:08:25.063Z,0
2018-04-12T02:09:05.624Z,0
2018-04-12T02:09:46.182Z,0
2018-04-12T02:10:26.739Z,0
2018-04-12T02:11:07.302Z,0
2018-04-12T02:11:47.867Z,0
2018-04-12T02:12:28.443Z,0
2018-04-12T02:13:08.993Z,0
2018-04-12T02:13:49.588Z,0
2018-04-12T02:14:30.180Z,0
2018-04-12T02:15:10.746Z,0
2018-04-12T02:15:51.326Z,0
2018-04-12T02:16:31.888Z,0
2018-04-12T02:17:12.449Z,0
2018-04-12T02:17:53.053Z,0
2018-04-12T02:18:33.654Z,0
2018-04-12T02:19:14.211Z,0
2018-04-12T02:19:54.800Z,0
2018-04-12T02:20:35.342Z,0
2018-04-12T02:21:15.916Z,0
2018-04-12T02:21:56.481Z,0
2018-04-12T02:22:37.043Z,0
2018-04-12T02:23:17.603Z,0
2018-04-12T02:23:58.181Z,0
2018-04-12T02:24:38.745Z,0
2018-04-12T02:25:19.317Z,0
2018-04-12T02:25:59.875Z,0
2018-04-12T02:26:40.443Z,0
2018-04-12T02:27:21.000Z,0
2018-04-12T02:28:01.566Z,0
2018-04-12T02:28:42.117Z,0
2018-04-12T02:29:22.688Z,0
2018-04-12T02:30:03.270Z,0
2018-04-12T02:30:43.829Z,0
2018-04-12T02:31:24.384Z,0
2018-04-12T02:32:04.939Z,0
2018-04-12T02:32:45.523Z,0
2018-04-12T02:33:26.091Z,0
2018-04-12T02:34:06.655Z,0
2018-04-12T02:34:47.211Z,0
2018-04-12T02:35:27.778Z,0
2018-04-12T02:36:08.337Z,0
2018-04-12T02:36:48.897Z,0
2018-04-12T02:37:29.469Z,0
2018-04-12T02:38:10.054Z,0
2018-04-12T02:38:50.648Z,0
2018-04-12T02:39:31.249Z,0
2018-04-12T02:40:11.829Z,0
2018-04-12T02:40:52.391Z,0
2018-04-12T02:41:32.954Z,0
2018-04-12T02:42:13.635Z,0
2018-04-12T02:42:54.099Z,0
2018-04-12T02:43:34.651Z,0
2018-04-12T02:44:15.238Z,0
2018-04-12T02:44:55.797Z,0
2018-04-12T02:45:36.388Z,0
2018-04-12T02:46:16.949Z,0
2018-04-12T02:46:57.523Z,0
2018-04-12T02:47:38.083Z,0
2018-04-12T02:48:18.646Z,0
2018-04-12T02:48:59.227Z,0
2018-04-12T02:49:39.786Z,0
2018-04-12T02:50:20.373Z,0
2018-04-12T02:51:00.944Z,0
2018-04-12T02:51:41.498Z,0
2018-04-12T02:52:22.068Z,0
2018-04-12T02:53:02.628Z,0
2018-04-12T02:53:43.199Z,0
2018-04-12T02:54:23.790Z,0
2018-04-12T02:55:04.343Z,0
2018-04-12T02:55:44.909Z,0
2018-04-12T02:56:25.474Z,0
2018-04-12T02:57:06.054Z,0
2018-04-12T02:57:46.612Z,0
2018-04-12T02:58:27.188Z,0
2018-04-12T02:59:07.784Z,0
2018-04-12T02:59:48.404Z,0
2018-04-12T03:00:28.959Z,0
2018-04-12T03:01:09.544Z,0
2018-04-12T03:01:50.103Z,0
2018-04-12T03:02:30.681Z,0
2018-04-12T03:03:11.251Z,0
2018-04-12T03:03:51.801Z,0
2018-04-12T03:04:32.361Z,0
2018-04-12T03:05:12.934Z,0
2018-04-12T03:05:53.497Z,0
2018-04-12T03:06:34.067Z,0
2018-04-12T03:07:14.635Z,0
2018-04-12T03:07:55.193Z,0
2018-04-12T03:08:35.753Z,0
2018-04-12T03:09:16.355Z,0
2018-04-12T03:09:56.914Z,0
2018-04-12T03:10:37.496Z,0
2018-04-12T03:11:18.055Z,0
2018-04-12T03:11:58.615Z,0
2018-04-12T03:12:39.183Z,0
2018-04-12T03:13:19.745Z,0
2018-04-12T03:14:00.320Z,0
2018-04-12T03:14:40.889Z,0
2018-04-12T03:15:21.474Z,0
2018-04-12T03:16:02.040Z,0
2018-04-12T03:16:42.614Z,0
2018-04-12T03:17:23.171Z,0
2018-04-12T03:18:03.737Z,0
2018-04-12T03:18:44.292Z,0
2018-04-12T03:19:24.868Z,0
2018-04-12T03:20:05.440Z,0
2018-04-12T03:20:45.988Z,0
2018-04-12T03:21:26.556Z,0
2018-04-12T03:22:07.130Z,0
2018-04-12T03:22:47.712Z,0
2018-04-12T03:23:28.286Z,0
2018-04-12T03:24:08.843Z,0
2018-04-12T03:24:49.403Z,0
2018-04-12T03:25:29.977Z,0
2018-04-12T03:26:10.551Z,0
2018-04-12T03:26:51.134Z,0
2018-04-12T03:27:31.700Z,0
2018-04-12T03:28:12.255Z,0
2018-04-12T03:28:52.819Z,0
2018-04-12T03:29:33.384Z,0
2018-04-12T03:30:13.969Z,0
2018-04-12T03:30:54.523Z,0
2018-04-12T03:31:35.094Z,0
2018-04-12T03:32:15.636Z,0
2018-04-12T03:32:56.225Z,0
2018-04-12T03:33:36.791Z,0
2018-04-12T03:34:17.376Z,0
2018-04-12T03:34:57.934Z,0
2018-04-12T03:35:38.512Z,0
2018-04-12T03:36:19.069Z,0
2018-04-12T03:36:59.630Z,0
2018-04-12T03:37:40.187Z,0
2018-04-12T03:38:20.744Z,0
2018-04-12T03:39:01.363Z,0
2018-04-12T03:39:41.929Z,0
2018-04-12T03:40:22.484Z,0
2018-04-12T03:41:03.069Z,0
2018-04-12T03:41:43.653Z,0
2018-04-12T03:42:24.236Z,0
2018-04-12T03:43:04.803Z,0
2018-04-12T03:43:45.397Z,0
2018-04-12T03:44:25.974Z,0
2018-04-12T03:45:06.551Z,0
2018-04-12T03:45:47.121Z,4
2018-04-12T03:46:27.694Z,4
2018-04-12T03:47:08.262Z,4
2018-04-12T03:47:48.839Z,0
2018-04-12T03:48:29.408Z,0
2018-04-12T03:49:10.038Z,4
2018-04-12T03:49:50.565Z,4
2018-04-12T03:50:31.179Z,4
2018-04-12T03:51:11.684Z,4
2018-04-12T03:51:52.251Z,4
2018-04-12T03:52:32.814Z,8
2018-04-12T03:53:13.370Z,4
2018-04-12T03:53:53.923Z,8
2018-04-12T03:54:34.465Z,8
2018-04-12T03:55:15.050Z,12
2018-04-12T03:55:55.627Z,8
2018-04-12T03:56:36.223Z,8
2018-04-12T03:57:16.842Z,16
2018-04-12T03:57:57.409Z,16
2018-04-12T03:58:38.021Z,16
2018-04-12T03:59:18.600Z,16
2018-04-12T03:59:59.143Z,20
2018-04-12T04:00:39.743Z,20
2018-04-12T04:01:20.337Z,24
2018-04-12T04:02:00.963Z,28
2018-04-12T04:02:41.536Z,28
2018-04-12T04:03:22.148Z,28
2018-04-12T04:04:02.699Z,32
2018-04-12T04:04:43.300Z,36
2018-04-12T04:05:23.863Z,40
2018-04-12T04:06:04.426Z,44
2018-04-12T04:06:45.006Z,44
2018-04-12T04:07:25.658Z,52
2018-04-12T04:08:06.191Z,52
2018-04-12T04:08:46.757Z,56
2018-04-12T04:09:27.312Z,64
2018-04-12T04:10:07.859Z,68
2018-04-12T04:10:48.427Z,72
2018-04-12T04:11:28.995Z,76
2018-04-12T04:12:09.569Z,84
2018-04-12T04:12:50.168Z,92
2018-04-12T04:13:30.749Z,96
2018-04-12T04:14:11.331Z,104
2018-04-12T04:14:51.932Z,108
2018-04-12T04:15:32.578Z,116
2018-04-12T04:16:13.333Z,120
2018-04-12T04:16:53.938Z,132
2018-04-12T04:17:34.509Z,136
2018-04-12T04:18:15.072Z,144
2018-04-12T04:18:55.623Z,152
2018-04-12T04:19:36.171Z,160
2018-04-12T04:20:16.736Z,168
2018-04-12T04:20:57.304Z,176
2018-04-12T04:21:37.884Z,188
2018-04-12T04:22:20.497Z,196
2018-04-12T04:23:01.062Z,208
2018-04-12T04:23:41.691Z,216
2018-04-12T04:24:22.277Z,228
2018-04-12T04:25:02.851Z,240
2018-04-12T04:25:43.434Z,252
2018-04-12T04:26:24.003Z,264
2018-04-12T04:27:04.563Z,280
2018-04-12T04:27:45.117Z,292
2018-04-12T04:28:25.714Z,308
2018-04-12T04:29:06.276Z,324
2018-04-12T04:29:46.836Z,340
2018-04-12T04:30:27.410Z,352
2018-04-12T04:31:07.971Z,372
2018-04-12T04:31:48.551Z,388
2018-04-12T04:32:29.081Z,408
2018-04-12T04:33:09.660Z,428
2018-04-12T04:33:50.228Z,452
2018-04-12T04:34:30.795Z,476
2018-04-12T04:35:11.374Z,500
2018-04-12T04:35:51.930Z,524
2018-04-12T04:36:32.520Z,552
2018-04-12T04:37:13.109Z,576
2018-04-12T04:37:53.680Z,604
2018-04-12T04:38:34.253Z,636
2018-04-12T04:39:14.846Z,664
2018-04-12T04:39:55.471Z,692
2018-04-12T04:40:36.040Z,724
2018-04-12T04:41:16.571Z,756
2018-04-12T04:41:57.130Z,780
2018-04-12T04:42:37.686Z,812
2018-04-12T04:43:18.246Z,844
2018-04-12T04:43:58.859Z,868
2018-04-12T04:44:39.420Z,896
2018-04-12T04:45:19.972Z,924
2018-04-12T04:46:00.541Z,960
2018-04-12T04:46:41.147Z,1000
2018-04-12T04:47:21.845Z,1028
2018-04-12T04:48:02.390Z,1052
2018-04-12T04:48:42.993Z,1084
2018-04-12T04:49:23.555Z,1116
2018-04-12T04:50:04.133Z,1140
2018-04-12T04:50:44.718Z,1168
2018-04-12T04:51:25.302Z,1224
2018-04-12T04:52:05.875Z,1228
2018-04-12T04:52:46.432Z,1260
2018-04-12T04:53:27.033Z,1308
2018-04-12T04:54:07.759Z,1360
2018-04-12T04:54:48.383Z,1400
2018-04-12T04:55:28.988Z,1408
2018-04-12T04:56:10.138Z,1440
2018-04-12T04:56:50.971Z,1496
2018-04-12T04:57:31.549Z,1512
2018-04-12T04:58:12.111Z,1536
2018-04-12T04:58:52.684Z,1556
2018-04-12T04:59:33.256Z,1604
2018-04-12T05:00:13.830Z,1648
2018-04-12T05:00:54.390Z,1668
2018-04-12T05:01:34.950Z,1712
2018-04-12T05:02:15.533Z,1748
2018-04-12T05:02:56.096Z,1792
2018-04-12T05:03:36.664Z,1812
2018-04-12T05:04:17.228Z,1796
2018-04-12T05:04:57.837Z,1788
2018-04-12T05:05:38.398Z,1868
2018-04-12T05:06:18.950Z,2012
2018-04-12T05:06:59.511Z,2136
2018-04-12T05:07:40.121Z,2172
2018-04-12T05:08:20.658Z,2276
2018-04-12T05:09:01.227Z,2372
2018-04-12T05:09:41.787Z,2400
2018-04-12T05:10:22.379Z,2456
2018-04-12T05:11:03.071Z,2488
2018-04-12T05:11:43.649Z,2552
2018-04-12T05:12:24.229Z,2608
2018-04-12T05:13:04.776Z,2636
2018-04-12T05:13:45.373Z,2648
2018-04-12T05:14:25.945Z,2668
2018-04-12T05:15:06.550Z,2768
2018-04-12T05:15:47.102Z,2804
2018-04-12T05:16:27.670Z,2856
2018-04-12T05:17:08.278Z,2908
2018-04-12T05:17:48.867Z,2980
2018-04-12T05:18:29.505Z,3012
2018-04-12T05:19:10.090Z,3064
2018-04-12T05:19:50.669Z,3132
2018-04-12T05:20:31.275Z,3224
2018-04-12T05:21:11.861Z,3260
2018-04-12T05:21:52.453Z,3344
2018-04-12T05:22:33.015Z,3380
2018-04-12T05:23:13.583Z,3448
2018-04-12T05:23:54.139Z,3552
2018-04-12T05:24:34.700Z,3604
2018-04-12T05:25:15.266Z,3648
2018-04-12T05:25:55.837Z,3732
2018-04-12T05:26:36.393Z,3752
2018-04-12T05:27:17.026Z,3800
2018-04-12T05:27:57.559Z,3988
2018-04-12T05:28:38.117Z,3932
2018-04-12T05:29:18.818Z,3924
2018-04-12T05:29:59.381Z,4040
2018-04-12T05:30:39.982Z,4264
2018-04-12T05:31:20.594Z,4144
2018-04-12T05:32:01.185Z,4152
2018-04-12T05:32:41.780Z,4132
2018-04-12T05:33:22.326Z,4236
2018-04-12T05:34:02.882Z,4280
2018-04-12T05:34:43.446Z,4400
2018-04-12T05:35:24.014Z,4296
2018-04-12T05:36:04.612Z,4356
2018-04-12T05:36:45.240Z,4512
2018-04-12T05:37:25.826Z,4524
2018-04-12T05:38:06.412Z,4568
2018-04-12T05:38:46.977Z,4580
2018-04-12T05:39:27.547Z,4616
2018-04-12T05:40:08.106Z,4672
2018-04-12T05:40:48.661Z,4740
2018-04-12T05:41:29.245Z,4820
2018-04-12T05:42:09.803Z,4920
2018-04-12T05:42:50.378Z,5076
2018-04-12T05:43:30.955Z,5132
2018-04-12T05:44:11.531Z,5140
2018-04-12T05:44:52.185Z,5344
2018-04-12T05:45:32.745Z,5432
2018-04-12T05:46:13.381Z,5564
2018-04-12T05:46:53.938Z,5720
2018-04-12T05:47:34.507Z,5888
2018-04-12T05:48:15.069Z,5940
2018-04-12T05:48:55.636Z,6032
2018-04-12T05:49:36.193Z,6000
2018-04-12T05:50:16.752Z,6044
2018-04-12T05:50:57.340Z,6188
2018-04-12T05:51:39.769Z,6268
2018-04-12T05:52:20.356Z,6448
2018-04-12T05:53:00.962Z,6764
2018-04-12T05:53:41.569Z,6840
2018-04-12T05:54:22.159Z,7028
2018-04-12T05:55:02.764Z,7256
2018-04-12T05:55:43.322Z,7220
2018-04-12T05:56:23.871Z,7312
2018-04-12T05:57:04.454Z,7460
2018-04-12T05:57:45.117Z,7480
2018-04-12T05:58:25.613Z,7560
2018-04-12T05:59:06.195Z,7668
2018-04-12T05:59:46.763Z,7872
2018-04-12T06:00:27.329Z,8004
2018-04-12T06:01:07.942Z,7892
2018-04-12T06:01:48.514Z,7992
2018-04-12T06:02:29.099Z,8140
2018-04-12T06:03:09.714Z,8132
2018-04-12T06:03:50.281Z,8188
2018-04-12T06:04:30.890Z,8328
2018-04-12T06:05:11.469Z,8288
2018-04-12T06:05:52.050Z,8072
2018-04-12T06:06:32.617Z,7896
2018-04-12T06:07:13.189Z,7748
2018-04-12T06:07:53.758Z,7508
2018-04-12T06:08:34.328Z,7628
2018-04-12T06:09:14.884Z,8076
2018-04-12T06:09:55.493Z,8096
2018-04-12T06:10:36.141Z,8236
2018-04-12T06:11:16.673Z,8864
2018-04-12T06:11:57.345Z,9156
2018-04-12T06:12:37.969Z,9312
2018-04-12T06:13:18.538Z,9432
2018-04-12T06:13:59.094Z,9412
2018-04-12T06:14:39.676Z,9396
2018-04-12T06:15:20.234Z,9356
2018-04-12T06:16:00.804Z,9492
2018-04-12T06:16:41.394Z,9372
2018-04-12T06:17:21.969Z,9400
2018-04-12T06:18:02.545Z,9496
2018-04-12T06:18:43.108Z,9648
2018-04-12T06:19:23.729Z,9628
2018-04-12T06:20:04.318Z,9960
2018-04-12T06:20:44.866Z,9856
2018-04-12T06:21:25.652Z,9260
2018-04-12T06:22:06.204Z,9476
2018-04-12T06:22:46.739Z,9212
2018-04-12T06:23:27.351Z,9472
2018-04-12T06:24:07.922Z,9656
2018-04-12T06:24:48.503Z,9684
2018-04-12T06:25:29.056Z,9948
2018-04-12T06:26:09.680Z,9916
2018-04-12T06:26:50.252Z,10012
2018-04-12T06:27:30.827Z,11152
2018-04-12T06:28:11.426Z,12696
2018-04-12T06:28:52.024Z,15404
2018-04-12T06:29:32.655Z,19392
2018-04-12T06:30:13.241Z,21696
2018-04-12T06:30:53.826Z,24672
2018-04-12T06:31:34.477Z,26944
2018-04-12T06:32:15.114Z,29792
2018-04-12T06:32:55.912Z,34144
2018-04-12T06:33:36.844Z,36704
2018-04-12T06:34:17.385Z,37184
2018-04-12T06:34:57.943Z,36000
2018-04-12T06:35:38.505Z,32960
2018-04-12T06:36:19.075Z,33632
2018-04-12T06:36:59.667Z,36576
2018-04-12T06:37:40.236Z,36480
2018-04-12T06:38:20.846Z,34272
2018-04-12T06:39:01.442Z,37504
2018-04-12T06:39:42.012Z,36000
2018-04-12T06:40:22.591Z,37248
2018-04-12T06:41:03.129Z,34816
2018-04-12T06:41:43.695Z,34848
2018-04-12T06:42:24.273Z,35360
2018-04-12T06:43:04.848Z,35968
2018-04-12T06:43:45.408Z,38752
2018-04-12T06:44:26.010Z,40672
2018-04-12T06:45:06.586Z,40384
2018-04-12T06:45:47.242Z,39584
2018-04-12T06:46:27.819Z,38848
2018-04-12T06:47:08.400Z,37888
2018-04-12T06:47:48.946Z,36800
2018-04-12T06:48:29.558Z,34720
2018-04-12T06:49:10.120Z,34560
2018-04-12T06:49:50.699Z,31968
2018-04-12T06:50:31.280Z,27872
2018-04-12T06:51:11.885Z,28960
2018-04-12T06:51:52.501Z,29664
2018-04-12T06:52:33.079Z,27648
2018-04-12T06:53:13.633Z,26752
2018-04-12T06:53:54.198Z,26304
2018-04-12T06:54:34.791Z,25088
2018-04-12T06:55:15.369Z,23520
2018-04-12T06:55:55.939Z,18016
2018-04-12T06:56:36.542Z,17184
2018-04-12T06:57:17.122Z,16160
2018-04-12T06:57:57.706Z,15808
2018-04-12T06:58:38.267Z,14824
2018-04-12T06:59:18.838Z,13116
2018-04-12T06:59:59.417Z,10400
2018-04-12T07:00:40.017Z,10880
2018-04-12T07:01:20.639Z,11616
2018-04-12T07:02:01.336Z,14268
2018-04-12T07:02:42.464Z,14216
2018-04-12T07:03:23.086Z,16288
2018-04-12T07:04:03.823Z,16672
2018-04-12T07:04:44.389Z,17984
2018-04-12T07:05:24.992Z,18848
2018-04-12T07:06:05.763Z,19936
2018-04-12T07:06:46.813Z,20768
2018-04-12T07:07:27.453Z,21728
2018-04-12T07:08:08.042Z,20352
2018-04-12T07:08:48.616Z,20224
2018-04-12T07:09:29.493Z,19648
2018-04-12T07:10:09.952Z,20064
2018-04-12T07:10:50.535Z,20512
2018-04-12T07:11:31.118Z,18784
2018-04-12T07:12:11.700Z,16800
2018-04-12T07:12:52.285Z,14780
2018-04-12T07:13:32.850Z,13492
2018-04-12T07:14:13.430Z,12668
2018-04-12T07:14:54.019Z,12012
2018-04-12T07:15:34.587Z,11824
2018-04-12T07:16:15.140Z,11816
2018-04-12T07:16:55.775Z,12236
2018-04-12T07:17:36.502Z,12488
2018-04-12T07:18:17.352Z,11840
2018-04-12T07:18:58.210Z,9768
2018-04-12T07:19:39.190Z,8832
2018-04-12T07:20:19.748Z,8044
2018-04-12T07:21:00.317Z,7752
2018-04-12T07:21:41.045Z,8132
2018-04-12T07:22:21.947Z,8604
2018-04-12T07:23:02.469Z,8460
2018-04-12T07:23:43.536Z,8332
2018-04-12T07:24:24.303Z,7756
2018-04-12T07:25:05.148Z,7292
2018-04-12T07:25:45.638Z,6652
2018-04-12T07:26:26.263Z,6248
2018-04-12T07:27:07.619Z,5984
2018-04-12T07:27:48.555Z,5864
2018-04-12T07:28:29.073Z,5952
2018-04-12T07:29:09.682Z,6296
2018-04-12T07:29:50.303Z,6204
2018-04-12T07:30:30.872Z,6896
2018-04-12T07:31:11.436Z,8176
2018-04-12T07:31:52.357Z,11376
2018-04-12T07:32:32.962Z,12596
2018-04-12T07:33:13.549Z,14128
2018-04-12T07:33:54.101Z,14648
2018-04-12T07:34:34.663Z,15576
2018-04-12T07:35:15.254Z,20128
2018-04-12T07:35:55.898Z,18400
2018-04-12T07:36:36.499Z,18816
2018-04-12T07:37:17.100Z,20512
2018-04-12T07:37:58.702Z,16768
2018-04-12T07:38:39.358Z,13092
2018-04-12T07:39:19.940Z,12072
2018-04-12T07:40:00.496Z,14408
2018-04-12T07:40:41.103Z,13760
2018-04-12T07:41:22.019Z,12520
2018-04-12T07:42:02.626Z,10972
2018-04-12T07:42:43.242Z,11020
2018-04-12T07:43:23.832Z,11412
2018-04-12T07:44:04.421Z,12056
2018-04-12T07:44:44.991Z,12152
2018-04-12T07:45:25.624Z,11880
2018-04-12T07:46:06.341Z,11188
2018-04-12T07:46:47.396Z,11264
2018-04-12T07:47:28.194Z,11532
2018-04-12T07:48:08.790Z,13600
2018-04-12T07:48:49.351Z,17984
2018-04-12T07:49:30.318Z,23040
2018-04-12T07:50:10.949Z,25440
2018-04-12T07:50:51.581Z,35616
2018-04-12T07:51:32.173Z,39104
2018-04-12T07:52:12.744Z,29408
2018-04-12T07:52:53.372Z,26272
2018-04-12T07:53:33.936Z,45632
2018-04-12T07:54:14.529Z,49408
2018-04-12T07:54:55.112Z,49952
2018-04-12T07:55:35.710Z,48608
2018-04-12T07:56:16.305Z,41024
2018-04-12T07:56:56.911Z,30496
2018-04-12T07:57:37.485Z,32672
2018-04-12T07:58:18.101Z,23296
2018-04-12T07:58:58.687Z,32864
2018-04-12T07:59:39.288Z,38944
2018-04-12T08:00:19.867Z,50336
2018-04-12T08:01:00.454Z,50304
2018-04-12T08:01:41.011Z,57600
2018-04-12T08:02:21.575Z,60224
2018-04-12T08:03:02.164Z,60128
2018-04-12T08:03:42.776Z,55648
2018-04-12T08:04:23.334Z,53408
2018-04-12T08:05:03.914Z,52416
2018-04-12T08:05:44.915Z,49920
2018-04-12T08:06:25.244Z,50240
2018-04-12T08:07:05.810Z,46816
2018-04-12T08:07:46.390Z,52000
2018-04-12T08:08:26.983Z,59584
2018-04-12T08:09:07.646Z,51296
2018-04-12T08:09:48.220Z,40160
2018-04-12T08:10:28.810Z,45280
2018-04-12T08:11:09.379Z,37312
2018-04-12T08:11:49.951Z,25440
2018-04-12T08:12:30.517Z,16672
2018-04-12T08:13:11.166Z,13236
2018-04-12T08:13:51.772Z,12012
2018-04-12T08:14:32.406Z,11688
2018-04-12T08:15:12.924Z,10852
2018-04-12T08:15:53.526Z,9804
2018-04-12T08:16:34.089Z,9424
2018-04-12T08:17:14.656Z,9336
2018-04-12T08:17:55.230Z,8692
2018-04-12T08:18:35.827Z,8320
2018-04-12T08:19:16.441Z,7904
2018-04-12T08:19:57.020Z,7868
2018-04-12T08:20:37.580Z,7560
2018-04-12T08:21:18.188Z,7496
2018-04-12T08:21:58.790Z,7544
2018-04-12T08:22:39.354Z,7404
2018-04-12T08:23:19.931Z,7284
2018-04-12T08:24:00.506Z,7644
2018-04-12T08:24:41.210Z,7904
2018-04-12T08:25:21.789Z,7976
2018-04-12T08:26:02.411Z,8164
2018-04-12T08:26:42.958Z,8424
2018-04-12T08:27:23.516Z,8944
2018-04-12T08:28:04.080Z,9664
2018-04-12T08:28:44.665Z,10124
2018-04-12T08:29:25.222Z,10356
2018-04-12T08:30:05.787Z,11480
2018-04-12T08:30:46.379Z,11764
2018-04-12T08:31:26.955Z,11592
2018-04-12T08:32:07.528Z,11572
2018-04-12T08:32:48.106Z,12156
2018-04-12T08:33:28.710Z,12968
2018-04-12T08:34:09.302Z,13720
2018-04-12T08:34:49.893Z,14156
2018-04-12T08:35:30.470Z,14144
2018-04-12T08:36:11.036Z,14068
2018-04-12T08:36:51.609Z,14220
2018-04-12T08:37:32.184Z,14332
2018-04-12T08:38:12.760Z,14460
2018-04-12T08:38:53.339Z,14528
2018-04-12T08:39:33.909Z,14392
2018-04-12T08:40:14.472Z,14272
2018-04-12T08:40:55.060Z,13936
2018-04-12T08:41:35.633Z,13348
2018-04-12T08:42:16.282Z,12572
2018-04-12T08:42:56.880Z,12344
2018-04-12T08:43:37.480Z,11792
2018-04-12T08:44:18.434Z,11156
2018-04-12T08:44:58.905Z,11424
2018-04-12T08:45:39.488Z,11404
2018-04-12T08:46:20.056Z,11100
2018-04-12T08:47:00.637Z,11212
2018-04-12T08:47:41.289Z,10872
2018-04-12T08:48:21.859Z,10544
2018-04-12T08:49:02.435Z,9084
2018-04-12T08:49:43.012Z,8664
2018-04-12T08:50:24.092Z,8988
2018-04-12T08:51:04.726Z,8700
2018-04-12T08:51:45.314Z,7900
2018-04-12T08:52:25.992Z,7448
2018-04-12T08:53:06.606Z,7252
2018-04-12T08:53:47.203Z,7068
2018-04-12T08:54:27.793Z,6980
2018-04-12T08:55:08.357Z,6948
2018-04-12T08:55:48.932Z,6924
2018-04-12T08:56:29.494Z,6896
2018-04-12T08:57:10.057Z,6848
2018-04-12T08:57:50.611Z,6756
2018-04-12T08:58:31.171Z,6772
2018-04-12T08:59:11.728Z,6844
2018-04-12T08:59:52.303Z,6912
2018-04-12T09:00:32.866Z,6932
2018-04-12T09:01:13.427Z,7068
2018-04-12T09:01:53.982Z,7412
2018-04-12T09:02:34.560Z,7628
2018-04-12T09:03:15.129Z,7416
2018-04-12T09:03:55.733Z,7324
2018-04-12T09:04:36.314Z,7468
2018-04-12T09:05:16.891Z,7608
2018-04-12T09:05:57.458Z,7468
2018-04-12T09:06:38.106Z,7488
2018-04-12T09:07:18.904Z,7812
2018-04-12T09:07:59.875Z,7816
2018-04-12T09:08:40.530Z,7656
2018-04-12T09:09:21.385Z,7668
2018-04-12T09:10:02.211Z,7664
2018-04-12T09:10:42.797Z,7404
2018-04-12T09:11:23.867Z,7108
2018-04-12T09:12:04.546Z,6972
2018-04-12T09:12:45.249Z,6880
2018-04-12T09:13:25.872Z,6804
2018-04-12T09:14:06.490Z,6756
2018-04-12T09:14:47.114Z,6748
2018-04-12T09:15:27.854Z,6836
2018-04-12T09:16:08.392Z,6932
2018-04-12T09:16:49.001Z,6936
2018-04-12T09:17:30.523Z,7000
2018-04-12T09:18:11.333Z,7180
2018-04-12T09:18:51.975Z,7584
2018-04-12T09:19:32.537Z,8404
2018-04-12T09:20:13.809Z,8992
2018-04-12T09:20:54.677Z,9060
2018-04-12T09:21:35.585Z,9580
2018-04-12T09:22:16.263Z,10596